createdAt,value
2023-01-30T00:00:37.353Z,-0.25
2023-01-30T00:03:17.138Z,-0.15
2023-01-30T00:12:08.847Z,-0.16
2023-01-30T00:19:28.158Z,-0.20
2023-01-30T00:21:56.768Z,-0.27
2023-01-30T00:31:02.619Z,-0.26
2023-01-30T00:33:58.005Z,-0.38
2023-01-30T00:39:49.473Z,-0.24
2023-01-30T00:44:46.971Z,-0.32
2023-01-30T00:51:08.999Z,-0.38
2023-01-30T00:54:01.499Z,-0.43
2023-01-30T00:57:17.128Z,-0.28
2023-01-30T01:03:44.159Z,-0.35
2023-01-30T01:07:59.259Z,-0.38
2023-01-30T01:10:59.657Z,-0.40
2023-01-30T01:14:23.918Z,-0.51
2023-01-30T01:24:36.468Z,-0.47
2023-01-30T01:27:18.426Z,-0.54
2023-01-30T01:30:03.466Z,-0.47
2023-01-30T01:45:26.179Z,-0.35
2023-01-30T01:48:34.167Z,-0.32
2023-01-30T01:51:30.410Z,-0.38
2023-01-30T01:54:09.500Z,-0.40
2023-01-30T01:57:02.983Z,-0.40
2023-01-30T02:02:59.134Z,-0.30
2023-01-30T02:05:34.108Z,-0.15
2023-01-30T02:08:11.162Z,-0.16
2023-01-30T02:10:51.316Z,-0.17
2023-01-30T02:13:22.054Z,-0.12
2023-01-30T02:15:52.983Z,-0.23
2023-01-30T02:18:26.041Z,-0.27
2023-01-30T02:21:30.252Z,-0.29
2023-01-30T02:24:28.306Z,-0.20
2023-01-30T02:27:29.327Z,-0.21
2023-01-30T02:30:25.628Z,-0.26
2023-01-30T02:33:15.014Z,-0.22
2023-01-30T02:35:56.077Z,-0.26
2023-01-30T02:38:42.697Z,-0.23
2023-01-30T02:41:27.607Z,-0.25
2023-01-30T02:44:07.765Z,-0.39
2023-01-30T02:46:47.902Z,-0.34
2023-01-30T02:49:26.789Z,-0.41
2023-01-30T02:52:00.255Z,-0.30
2023-01-30T02:54:30.442Z,-0.37
2023-01-30T03:04:07.172Z,-0.42
2023-01-30T03:11:30.246Z,-0.35
2023-01-30T03:32:56.791Z,-0.13
2023-01-30T03:35:36.041Z,-0.04
2023-01-30T03:38:10.474Z,-0.02
2023-01-30T03:41:31.256Z,-0.10
2023-01-30T03:44:07.416Z,0.06
2023-01-30T03:50:44.507Z,-0.05
2023-01-30T03:58:36.828Z,0.23
2023-01-30T04:01:20.131Z,0.33
2023-01-30T04:21:37.126Z,0.44
2023-01-30T04:29:01.694Z,0.49
2023-01-30T04:32:24.437Z,0.50
2023-01-30T04:35:29.218Z,0.57
2023-01-30T04:38:58.532Z,0.58
2023-01-30T04:45:10.818Z,0.57
2023-01-30T04:47:40.695Z,0.57
2023-01-30T04:50:12.419Z,0.60
2023-01-30T04:52:42.407Z,0.59
2023-01-30T04:55:13.964Z,0.61
2023-01-30T04:57:46.919Z,0.59
2023-01-30T05:00:17.492Z,0.55
2023-01-30T05:02:55.970Z,0.62
2023-01-30T05:05:27.033Z,0.72
2023-01-30T05:07:57.331Z,0.69
2023-01-30T05:10:27.457Z,0.73
2023-01-30T05:12:59.894Z,0.74
2023-01-30T05:15:29.693Z,0.73
2023-01-30T05:17:59.769Z,0.75
2023-01-30T05:20:32.996Z,0.78
2023-01-30T05:23:02.816Z,0.84
2023-01-30T05:25:32.839Z,0.82
2023-01-30T05:28:05.344Z,0.78
2023-01-30T05:30:35.240Z,0.69
2023-01-30T05:33:05.106Z,0.75
2023-01-30T05:35:34.975Z,0.80
2023-01-30T05:38:04.979Z,0.67
2023-01-30T05:40:34.917Z,0.63
2023-01-30T05:43:07.357Z,0.64
2023-01-30T05:45:37.327Z,0.73
2023-01-30T05:48:07.785Z,0.74
2023-01-30T05:50:37.927Z,0.74
2023-01-30T05:53:08.165Z,0.80
2023-01-30T05:55:38.168Z,0.71
2023-01-30T05:58:10.675Z,0.76
2023-01-30T06:00:40.899Z,0.75
2023-01-30T06:03:10.894Z,0.74
2023-01-30T06:05:41.491Z,0.74
2023-01-30T06:08:11.492Z,0.69
2023-01-30T06:10:41.464Z,0.70
2023-01-30T06:13:13.899Z,0.55
2023-01-30T06:15:43.784Z,0.60
2023-01-30T06:18:13.692Z,0.53
2023-01-30T06:20:43.568Z,0.59
2023-01-30T06:23:13.414Z,0.61
2023-01-30T06:25:47.709Z,0.62
2023-01-30T06:28:22.366Z,0.63
2023-01-30T06:30:52.889Z,0.59
2023-01-30T06:33:23.380Z,0.62
2023-01-30T06:35:56.910Z,0.68
2023-01-30T06:38:26.744Z,0.67
2023-01-30T06:40:56.667Z,0.76
2023-01-30T06:43:29.104Z,0.74
2023-01-30T06:46:01.521Z,0.81
2023-01-30T06:48:31.530Z,0.78
2023-01-30T06:51:01.524Z,0.68
2023-01-30T06:53:32.897Z,0.73
2023-01-30T06:56:04.656Z,0.76
2023-01-30T06:58:37.155Z,0.73
2023-01-30T07:01:07.141Z,0.76
2023-01-30T07:03:37.187Z,0.87
2023-01-30T07:06:07.287Z,0.90
2023-01-30T07:08:37.624Z,0.94
2023-01-30T07:11:09.146Z,0.92
2023-01-30T07:13:42.440Z,0.95
2023-01-30T07:16:16.854Z,0.98
2023-01-30T07:18:48.164Z,0.98
2023-01-30T07:21:18.759Z,0.96
2023-01-30T07:23:51.227Z,0.92
2023-01-30T07:26:21.364Z,1.03
2023-01-30T07:28:53.820Z,0.88
2023-01-30T07:31:23.741Z,0.87
2023-01-30T07:33:53.581Z,0.89
2023-01-30T07:36:26.006Z,0.87
2023-01-30T07:38:58.729Z,0.81
2023-01-30T07:41:34.156Z,0.88
2023-01-30T07:44:09.390Z,0.93
2023-01-30T07:46:39.259Z,0.90
2023-01-30T07:49:11.815Z,0.76
2023-01-30T07:51:41.728Z,0.92
2023-01-30T07:54:11.654Z,1.03
2023-01-30T07:56:41.603Z,0.97
2023-01-30T07:59:17.878Z,0.91
2023-01-30T08:01:47.740Z,0.96
2023-01-30T08:04:17.780Z,1.01
2023-01-30T08:06:47.987Z,0.97
2023-01-30T08:09:17.925Z,1.10
2023-01-30T08:11:47.869Z,0.96
2023-01-30T08:14:26.524Z,1.01
2023-01-30T08:16:56.598Z,0.93
2023-01-30T08:19:26.486Z,0.96
2023-01-30T08:21:56.386Z,1.09
2023-01-30T08:24:26.277Z,1.05
2023-01-30T08:26:56.173Z,1.08
2023-01-30T08:29:28.863Z,0.98
2023-01-30T08:32:00.145Z,1.09
2023-01-30T08:34:30.446Z,1.11
2023-01-30T08:37:00.515Z,1.67
2023-01-30T08:39:30.358Z,1.81
2023-01-30T08:42:00.193Z,1.29
2023-01-30T08:44:32.604Z,1.27
2023-01-30T08:47:02.413Z,1.31
2023-01-30T08:49:32.226Z,1.20
2023-01-30T08:52:02.146Z,1.27
2023-01-30T08:54:33.354Z,1.39
2023-01-30T08:57:03.310Z,1.23
2023-01-30T08:59:35.852Z,1.29
2023-01-30T09:02:06.085Z,1.08
2023-01-30T09:04:36.252Z,1.26
2023-01-30T09:07:06.256Z,1.22
2023-01-30T09:09:39.095Z,1.26
2023-01-30T09:12:09.107Z,1.13
2023-01-30T09:14:44.908Z,1.31
2023-01-30T09:17:15.073Z,1.28
2023-01-30T09:19:45.095Z,1.22
2023-01-30T09:22:15.074Z,1.31
2023-01-30T09:24:44.984Z,1.44
2023-01-30T09:27:14.999Z,1.41
2023-01-30T09:29:47.565Z,1.41
2023-01-30T09:32:17.544Z,1.39
2023-01-30T09:34:48.751Z,1.28
2023-01-30T09:37:18.623Z,1.30
2023-01-30T09:39:48.504Z,1.29
2023-01-30T09:42:53.432Z,1.50
2023-01-30T09:45:46.879Z,1.40
2023-01-30T09:48:23.322Z,1.52
2023-01-30T09:51:29.933Z,1.64
2023-01-30T09:54:24.553Z,1.49
2023-01-30T09:57:02.516Z,1.45
2023-01-30T09:59:43.953Z,1.36
2023-01-30T10:02:34.398Z,1.72
2023-01-30T10:05:04.789Z,1.70
2023-01-30T10:07:49.670Z,1.67
2023-01-30T10:10:30.513Z,1.64
2023-01-30T10:13:13.032Z,1.63
2023-01-30T10:15:55.267Z,1.77
2023-01-30T10:18:58.221Z,1.79
2023-01-30T10:21:43.414Z,1.68
2023-01-30T10:24:41.201Z,1.80
2023-01-30T10:27:17.630Z,1.74
2023-01-30T10:29:52.140Z,1.67
2023-01-30T10:32:29.120Z,1.88
2023-01-30T10:35:10.650Z,1.83
2023-01-30T10:37:49.086Z,1.83
2023-01-30T10:40:28.071Z,1.89
2023-01-30T10:43:09.024Z,1.84
2023-01-30T10:45:51.289Z,1.86
2023-01-30T10:48:46.556Z,1.88
2023-01-30T10:51:48.532Z,1.91
2023-01-30T10:54:27.048Z,1.79
2023-01-30T10:57:11.430Z,1.89
2023-01-30T10:59:56.286Z,1.86
2023-01-30T11:02:29.181Z,1.88
2023-01-30T11:05:02.112Z,1.82
2023-01-30T11:07:36.723Z,1.88
2023-01-30T11:10:20.481Z,1.93
2023-01-30T11:12:58.701Z,1.94
2023-01-30T11:15:44.351Z,1.87
2023-01-30T11:21:10.877Z,1.87
2023-01-30T11:23:46.783Z,1.70
2023-01-30T11:26:26.089Z,1.89
2023-01-30T11:28:59.497Z,1.77
2023-01-30T11:31:41.365Z,1.83
2023-01-30T11:34:18.699Z,1.69
2023-01-30T11:36:49.717Z,1.78
2023-01-30T11:39:31.463Z,1.85
2023-01-30T11:42:05.831Z,1.86
2023-01-30T11:44:38.272Z,1.84
2023-01-30T11:47:12.767Z,2.09
2023-01-30T11:50:10.331Z,1.79
2023-01-30T11:52:46.719Z,1.91
2023-01-30T11:55:23.233Z,1.84
2023-01-30T11:57:58.660Z,1.87
2023-01-30T12:00:41.067Z,1.64
2023-01-30T12:03:16.488Z,1.67
2023-01-30T12:05:49.307Z,1.74
2023-01-30T12:08:42.576Z,1.73
2023-01-30T12:11:45.203Z,1.72
2023-01-30T12:14:29.662Z,1.78
2023-01-30T12:17:11.819Z,1.78
2023-01-30T12:20:06.223Z,1.58
2023-01-30T12:22:47.718Z,1.65
2023-01-30T12:25:25.052Z,1.81
2023-01-30T12:28:04.646Z,1.65
2023-01-30T12:30:41.711Z,1.66
2023-01-30T12:36:07.421Z,1.59
2023-01-30T12:38:58.692Z,1.68
2023-01-30T12:41:48.020Z,1.63
2023-01-30T12:44:51.789Z,1.73
2023-01-30T12:47:42.939Z,1.76
2023-01-30T12:50:28.374Z,1.73
2023-01-30T12:53:18.759Z,1.65
2023-01-30T12:56:00.756Z,1.70
2023-01-30T12:58:43.735Z,1.70
2023-01-30T13:01:29.810Z,1.78
2023-01-30T13:04:12.357Z,1.68
2023-01-30T13:07:09.761Z,1.76
2023-01-30T13:10:01.049Z,1.74
2023-01-30T13:12:41.328Z,1.87
2023-01-30T13:15:28.207Z,1.89
2023-01-30T13:18:14.747Z,1.93
2023-01-30T13:21:00.436Z,2.10
2023-01-30T13:23:44.309Z,1.94
2023-01-30T13:26:19.306Z,1.91
2023-01-30T13:28:53.945Z,2.09
2023-01-30T13:31:30.970Z,1.93
2023-01-30T13:34:09.510Z,1.93
2023-01-30T13:36:46.672Z,2.17
2023-01-30T13:39:23.693Z,2.08
2023-01-30T13:41:59.494Z,1.95
2023-01-30T13:44:34.357Z,1.96
2023-01-30T13:47:21.153Z,2.03
2023-01-30T13:50:13.020Z,1.99
2023-01-30T13:52:49.604Z,2.05
2023-01-30T13:55:36.338Z,2.17
2023-01-30T13:58:25.565Z,2.05
2023-01-30T14:00:57.826Z,2.20
2023-01-30T14:03:33.485Z,2.20
2023-01-30T14:06:40.437Z,2.08
2023-01-30T14:09:33.315Z,2.02
2023-01-30T14:12:06.870Z,2.13
2023-01-30T14:14:40.764Z,2.16
2023-01-30T14:17:15.033Z,2.17
2023-01-30T14:20:01.516Z,2.06
2023-01-30T14:22:39.717Z,2.17
2023-01-30T14:25:48.113Z,2.05
2023-01-30T14:28:51.143Z,2.15
2023-01-30T14:31:54.345Z,2.10
2023-01-30T14:34:52.394Z,2.24
2023-01-30T14:38:07.353Z,2.18
2023-01-30T14:40:42.896Z,2.15
2023-01-30T14:43:42.674Z,2.36
2023-01-30T14:46:58.290Z,2.36
2023-01-30T14:49:32.707Z,2.38
2023-01-30T14:52:05.723Z,2.46
2023-01-30T14:54:52.503Z,2.49
2023-01-30T14:57:32.577Z,2.33
2023-01-30T15:00:18.705Z,2.56
2023-01-30T15:02:56.797Z,2.70
2023-01-30T15:05:34.970Z,2.80
2023-01-30T15:08:15.259Z,2.68
2023-01-30T15:11:07.302Z,2.75
2023-01-30T15:13:56.679Z,2.70
2023-01-30T15:16:47.495Z,2.75
2023-01-30T15:19:51.986Z,2.70
2023-01-30T15:22:39.426Z,2.57
2023-01-30T15:25:43.528Z,2.89
2023-01-30T15:28:30.881Z,3.02
2023-01-30T15:31:12.927Z,3.17
2023-01-30T15:33:51.466Z,3.03
2023-01-30T15:36:26.078Z,2.90
2023-01-30T15:39:04.939Z,2.97
2023-01-30T15:41:42.990Z,2.88
2023-01-30T15:44:45.606Z,2.79
2023-01-30T15:47:40.067Z,2.79
2023-01-30T15:50:13.175Z,2.70
2023-01-30T15:52:48.327Z,2.78
2023-01-30T15:55:32.534Z,2.91
2023-01-30T15:58:36.840Z,2.77
2023-01-30T16:01:37.788Z,2.76
2023-01-30T16:05:00.555Z,2.89
2023-01-30T16:07:49.259Z,2.66
2023-01-30T16:10:27.935Z,2.77
2023-01-30T16:13:05.332Z,2.73
2023-01-30T16:15:48.223Z,2.70
2023-01-30T16:18:32.587Z,2.70
2023-01-30T16:21:09.545Z,2.58
2023-01-30T16:23:47.872Z,2.53
2023-01-30T16:26:34.929Z,2.53
2023-01-30T16:32:58.896Z,2.50
2023-01-30T16:35:37.764Z,2.60
2023-01-30T16:38:31.789Z,2.62
2023-01-30T16:41:01.828Z,2.63
2023-01-30T16:43:35.100Z,2.58
2023-01-30T16:46:37.817Z,2.76
2023-01-30T16:49:08.800Z,2.64
2023-01-30T16:51:41.499Z,2.73
2023-01-30T16:54:21.905Z,2.75
2023-01-30T16:56:56.924Z,2.77
2023-01-30T16:59:33.973Z,2.66
2023-01-30T17:02:08.180Z,2.63
2023-01-30T17:04:41.458Z,2.70
2023-01-30T17:07:36.786Z,2.76
2023-01-30T17:10:07.363Z,2.76
2023-01-30T17:12:45.903Z,2.79
2023-01-30T17:15:32.103Z,2.78
2023-01-30T17:18:02.095Z,2.82
2023-01-30T17:20:51.214Z,2.79
2023-01-30T17:23:24.659Z,2.83
2023-01-30T17:25:54.672Z,2.84
2023-01-30T17:28:24.572Z,2.86
2023-01-30T17:30:54.605Z,2.86
2023-01-30T17:33:25.921Z,2.78
2023-01-30T17:35:55.902Z,2.83
2023-01-30T17:38:28.349Z,2.75
2023-01-30T17:40:58.274Z,2.68
2023-01-30T17:43:28.168Z,2.74
2023-01-30T17:45:58.673Z,2.81
2023-01-30T17:48:28.645Z,2.79
2023-01-30T17:50:58.640Z,2.80
2023-01-30T17:53:31.227Z,2.83
2023-01-30T17:56:01.164Z,2.90
2023-01-30T17:58:31.122Z,2.87
2023-01-30T18:01:01.000Z,2.87
2023-01-30T18:03:30.905Z,2.90
2023-01-30T18:06:01.022Z,2.96
2023-01-30T18:08:33.550Z,2.95
2023-01-30T18:11:03.450Z,3.04
2023-01-30T18:13:35.000Z,3.08
2023-01-30T18:16:06.114Z,3.06
2023-01-30T18:18:36.455Z,3.08
2023-01-30T18:21:06.495Z,3.02
2023-01-30T18:23:39.523Z,3.11
2023-01-30T18:26:09.447Z,3.07
2023-01-30T18:28:40.195Z,3.07
2023-01-30T18:31:10.290Z,3.16
2023-01-30T18:33:40.927Z,3.07
2023-01-30T18:36:12.839Z,3.02
2023-01-30T18:38:45.844Z,3.05
2023-01-30T18:41:19.172Z,3.00
2023-01-30T18:43:50.870Z,3.04
2023-01-30T18:46:21.081Z,3.03
2023-01-30T18:48:51.228Z,3.24
2023-01-30T18:51:24.704Z,3.23
2023-01-30T18:53:58.565Z,3.18
2023-01-30T18:56:31.383Z,3.19
2023-01-30T18:59:04.178Z,3.15
2023-01-30T19:01:38.704Z,3.19
2023-01-30T19:04:10.571Z,3.23
2023-01-30T19:06:42.487Z,3.27
2023-01-30T19:09:19.133Z,3.24
2023-01-30T19:12:01.581Z,3.21
2023-01-30T19:14:31.490Z,3.31
2023-01-30T19:17:01.482Z,3.32
2023-01-30T19:19:32.367Z,3.38
2023-01-30T19:22:02.290Z,3.33
2023-01-30T19:24:34.775Z,3.28
2023-01-30T19:27:07.597Z,3.43
2023-01-30T19:29:37.465Z,3.25
2023-01-30T19:32:08.190Z,3.29
2023-01-30T19:34:38.591Z,3.26
2023-01-30T19:37:08.709Z,3.33
2023-01-30T19:39:41.226Z,3.36
2023-01-30T19:42:11.100Z,3.30
2023-01-30T19:44:41.152Z,3.29
2023-01-30T19:47:13.946Z,3.49
2023-01-30T19:49:43.841Z,3.40
2023-01-30T19:52:13.658Z,3.46
2023-01-30T19:54:47.067Z,3.32
2023-01-30T19:57:16.981Z,3.31
2023-01-30T19:59:47.006Z,3.48
2023-01-30T20:02:16.909Z,3.42
2023-01-30T20:04:46.805Z,3.35
2023-01-30T20:07:16.783Z,3.41
2023-01-30T20:09:49.379Z,3.42
2023-01-30T20:12:19.276Z,3.39
2023-01-30T20:14:49.180Z,3.44
2023-01-30T20:17:36.591Z,3.32
2023-01-30T20:20:22.601Z,3.44
2023-01-30T20:23:28.578Z,3.42
2023-01-30T20:26:26.033Z,3.43
2023-01-30T20:29:20.042Z,3.50
2023-01-30T20:35:09.113Z,3.39
2023-01-30T20:42:28.624Z,3.50
2023-01-30T20:46:32.520Z,3.43
2023-01-30T20:49:32.017Z,3.51
2023-01-30T20:52:01.994Z,3.44
2023-01-30T20:54:31.990Z,3.52
2023-01-30T21:08:37.085Z,3.53
2023-01-30T21:28:48.330Z,3.50
2023-01-30T21:31:21.299Z,3.54
2023-01-30T21:33:51.385Z,3.53
2023-01-30T21:36:21.790Z,3.65
2023-01-30T21:39:04.250Z,3.60
2023-01-30T21:41:59.300Z,3.53
2023-01-30T21:44:34.148Z,3.65
2023-01-30T21:47:04.016Z,3.81
2023-01-30T21:49:34.067Z,3.58
2023-01-30T21:52:07.266Z,3.67
2023-01-30T21:54:37.745Z,3.61
2023-01-30T21:57:07.682Z,3.61
2023-01-30T21:59:46.740Z,3.54
2023-01-30T22:02:19.177Z,3.56
2023-01-30T22:04:50.554Z,3.58
2023-01-30T22:43:02.431Z,3.52
